Time;durP1;ratioP1;P1;durP2;ratioP2;P2;SDS_P1;SDS_P2;PMS_P1;PMS_P2;Temp;Humidity;BMP_temperature;BMP_pressure;BME280_temperature;BME280_humidity;BME280_pressure;Samples;Min_cycle;Max_cycle;Signal;HPM_P1;HPM_P2
2021/01/01 00:01:16;;;;;;;31.37;20.77;;;;;;;;;;5057472;28;20779;-72
2021/01/01 00:03:45;;;;;;;28.57;20.17;;;;;;;;;;5057313;28;20729;-73
2021/01/01 00:06:12;;;;;;;36.30;21.87;;;;;;;;;;5059741;28;20824;-72
2021/01/01 00:08:40;;;;;;;34.60;22.23;;;;;;;;;;5057234;28;20739;-73
2021/01/01 00:11:07;;;;;;;33.43;22.03;;;;;;;;;;5057545;28;20732;-72
2021/01/01 00:13:42;;;;;;;33.03;20.50;;;;;;;;;;5057021;28;20457;-71
2021/01/01 00:16:11;;;;;;;29.80;19.20;;;;;;;;;;5057202;28;20484;-72
2021/01/01 00:18:41;;;;;;;27.33;19.67;;;;;;;;;;5056285;28;20469;-74
2021/01/01 00:21:21;;;;;;;27.80;18.07;;;;;;;;;;5058461;28;20578;-72
2021/01/01 00:23:50;;;;;;;23.50;15.03;;;;;;;;;;5057041;28;20476;-72
2021/01/01 00:26:18;;;;;;;29.33;16.93;;;;;;;;;;5056817;28;20438;-73
2021/01/01 00:28:46;;;;;;;25.10;16.00;;;;;;;;;;5056726;28;20496;-73
2021/01/01 00:31:20;;;;;;;22.63;15.00;;;;;;;;;;5056217;28;21155;-72
2021/01/01 00:33:47;;;;;;;20.90;14.50;;;;;;;;;;5055947;28;20813;-72
2021/01/01 00:36:16;;;;;;;23.33;14.70;;;;;;;;;;5045235;28;20464;-72
2021/01/01 00:38:50;;;;;;;19.30;12.93;;;;;;;;;;5036966;28;20473;-73
2021/01/01 00:41:21;;;;;;;23.50;14.07;;;;;;;;;;5044232;28;20454;-73
2021/01/01 00:43:48;;;;;;;19.30;12.57;;;;;;;;;;5056470;28;20454;-73
2021/01/01 00:46:15;;;;;;;17.33;11.43;;;;;;;;;;5056093;28;20519;-73
2021/01/01 00:48:43;;;;;;;20.80;13.50;;;;;;;;;;5056033;28;20767;-72
2021/01/01 00:51:13;;;;;;;18.03;13.37;;;;;;;;;;5056210;28;20454;-72
2021/01/01 00:53:41;;;;;;;21.30;11.43;;;;;;;;;;5048154;28;20455;-72
2021/01/01 00:56:08;;;;;;;18.17;13.37;;;;;;;;;;5056651;28;20462;-72
2021/01/01 00:58:36;;;;;;;16.77;11.83;;;;;;;;;;5048000;28;20527;-72
2021/01/01 01:01:03;;;;;;;16.27;11.63;;;;;;;;;;5056010;28;20532;-72
2021/01/01 01:03:30;;;;;;;18.27;12.07;;;;;;;;;;5056214;28;20795;-72
2021/01/01 01:05:58;;;;;;;18.00;12.33;;;;;;;;;;5056601;28;20852;-72
2021/01/01 01:08:25;;;;;;;15.73;11.07;;;;;;;;;;5056278;28;20714;-72
2021/01/01 01:10:53;;;;;;;15.17;11.33;;;;;;;;;;5055870;28;20465;-73
2021/01/01 01:13:21;;;;;;;16.00;11.30;;;;;;;;;;5056415;28;20461;-72
2021/01/01 01:15:48;;;;;;;14.40;10.53;;;;;;;;;;5055804;28;20480;-72
2021/01/01 01:18:15;;;;;;;14.90;10.87;;;;;;;;;;5055676;28;20826;-73
2021/01/01 01:20:43;;;;;;;20.23;12.60;;;;;;;;;;5056028;28;20465;-73
2021/01/01 01:23:10;;;;;;;16.03;11.10;;;;;;;;;;5055943;28;20461;-73
2021/01/01 01:25:38;;;;;;;17.57;12.80;;;;;;;;;;5056490;28;20454;-72
2021/01/01 01:28:06;;;;;;;13.53;9.67;;;;;;;;;;5055910;28;20486;-72
2021/01/01 01:30:39;;;;;;;15.23;10.50;;;;;;;;;;5059221;28;20457;-73
2021/01/01 01:33:07;;;;;;;20.60;11.90;;;;;;;;;;5059967;28;20552;-73
2021/01/01 01:35:35;;;;;;;14.33;10.93;;;;;;;;;;5059381;28;20458;-73
2021/01/01 01:38:03;;;;;;;14.97;10.40;;;;;;;;;;5059619;28;20477;-73
2021/01/01 01:40:30;;;;;;;16.70;11.43;;;;;;;;;;5058833;28;20515;-72
2021/01/01 01:42:58;;;;;;;14.90;11.60;;;;;;;;;;5058893;28;20477;-73
2021/01/01 01:45:26;;;;;;;15.80;10.57;;;;;;;;;;5059294;28;20453;-72
2021/01/01 01:47:54;;;;;;;17.17;11.17;;;;;;;;;;5059372;28;20473;-72
2021/01/01 01:50:21;;;;;;;15.53;11.27;;;;;;;;;;5059303;28;20511;-72
2021/01/01 01:52:49;;;;;;;13.73;9.63;;;;;;;;;;5059555;28;20779;-72
2021/01/01 01:55:17;;;;;;;15.70;11.20;;;;;;;;;;5054713;28;20800;-73
2021/01/01 01:57:45;;;;;;;16.27;11.60;;;;;;;;;;5059660;28;20466;-72
2021/01/01 02:00:33;;;;;;;16.53;11.77;;;;;;;;;;5059958;28;20972;-72
2021/01/01 02:03:02;;;;;;;16.10;11.00;;;;;;;;;;5060017;28;20730;-72
2021/01/01 02:05:30;;;;;;;14.50;10.60;;;;;;;;;;5059615;28;20540;-72
2021/01/01 02:07:57;;;;;;;15.87;11.33;;;;;;;;;;5058956;28;20501;-72
2021/01/01 02:10:24;;;;;;;15.90;9.93;;;;;;;;;;5059437;28;20477;-72
2021/01/01 02:12:52;;;;;;;19.43;11.43;;;;;;;;;;5058607;28;20465;-72
2021/01/01 02:15:19;;;;;;;16.13;11.13;;;;;;;;;;5058860;28;20464;-72
2021/01/01 02:17:47;;;;;;;17.80;11.50;;;;;;;;;;5058479;28;20850;-72
2021/01/01 02:20:15;;;;;;;16.70;11.47;;;;;;;;;;5059203;28;20728;-72
2021/01/01 02:22:44;;;;;;;15.83;11.50;;;;;;;;;;5058590;28;20474;-72
2021/01/01 02:25:13;;;;;;;14.00;10.03;;;;;;;;;;5058178;28;20461;-72
2021/01/01 02:27:41;;;;;;;13.60;9.90;;;;;;;;;;5058735;28;20462;-72
2021/01/01 02:30:10;;;;;;;14.90;10.77;;;;;;;;;;5059029;28;20889;-72
2021/01/01 02:32:37;;;;;;;15.00;11.27;;;;;;;;;;5051184;28;20948;-73
2021/01/01 02:35:05;;;;;;;18.63;11.30;;;;;;;;;;5059004;28;20461;-72
2021/01/01 02:37:33;;;;;;;14.03;10.77;;;;;;;;;;5059051;28;20454;-72
2021/01/01 02:40:04;;;;;;;16.20;11.00;;;;;;;;;;5059624;28;20466;-73
2021/01/01 02:42:31;;;;;;;19.87;11.83;;;;;;;;;;5059244;28;20458;-72
2021/01/01 02:44:59;;;;;;;19.53;11.63;;;;;;;;;;5058685;28;20469;-73
2021/01/01 02:47:26;;;;;;;15.37;10.20;;;;;;;;;;5058834;28;20469;-73
2021/01/01 02:49:53;;;;;;;14.77;10.87;;;;;;;;;;5058834;28;20489;-72
2021/01/01 02:52:21;;;;;;;14.67;10.77;;;;;;;;;;5058883;28;20459;-72
2021/01/01 02:54:48;;;;;;;17.03;10.60;;;;;;;;;;5058494;28;20731;-72
2021/01/01 02:57:16;;;;;;;16.07;10.07;;;;;;;;;;5059464;28;20458;-72
2021/01/01 02:59:44;;;;;;;15.00;11.00;;;;;;;;;;5059262;28;20466;-72
2021/01/01 03:02:11;;;;;;;18.50;10.80;;;;;;;;;;5058823;28;20464;-72
2021/01/01 03:04:39;;;;;;;22.50;13.17;;;;;;;;;;5058508;28;20469;-72
2021/01/01 03:07:06;;;;;;;15.27;11.47;;;;;;;;;;5058228;28;20749;-72
2021/01/01 03:09:33;;;;;;;15.23;10.93;;;;;;;;;;5058506;28;20750;-71
2021/01/01 03:12:01;;;;;;;15.40;11.30;;;;;;;;;;5058429;28;20492;-72
2021/01/01 03:14:29;;;;;;;17.80;10.67;;;;;;;;;;5057799;28;20462;-72
2021/01/01 03:16:56;;;;;;;16.83;11.70;;;;;;;;;;5057318;28;20461;-72
2021/01/01 03:19:24;;;;;;;15.03;11.50;;;;;;;;;;5058529;28;20465;-72
2021/01/01 03:21:51;;;;;;;18.77;12.83;;;;;;;;;;5057710;28;20446;-72
2021/01/01 03:24:18;;;;;;;18.13;11.70;;;;;;;;;;5058373;28;20477;-72
2021/01/01 03:26:46;;;;;;;19.73;13.27;;;;;;;;;;5057963;28;20454;-72
2021/01/01 03:29:13;;;;;;;22.20;13.03;;;;;;;;;;5058120;28;20761;-72
2021/01/01 03:31:41;;;;;;;22.07;15.33;;;;;;;;;;5057921;28;20933;-74
2021/01/01 03:34:09;;;;;;;23.43;16.07;;;;;;;;;;5057744;28;20535;-72
2021/01/01 03:36:36;;;;;;;26.17;15.47;;;;;;;;;;5057136;28;20462;-72
2021/01/01 03:39:04;;;;;;;19.93;15.00;;;;;;;;;;5057653;28;20920;-72
2021/01/01 03:41:32;;;;;;;21.20;12.73;;;;;;;;;;5057912;28;20709;-72
2021/01/01 03:43:59;;;;;;;18.33;13.43;;;;;;;;;;5054474;28;20461;-72
2021/01/01 03:46:26;;;;;;;22.27;15.50;;;;;;;;;;5057824;28;20866;-72
2021/01/01 03:48:55;;;;;;;20.00;12.23;;;;;;;;;;5056271;28;20484;-72
2021/01/01 03:51:22;;;;;;;19.60;13.63;;;;;;;;;;5057483;28;20492;-72
2021/01/01 03:53:49;;;;;;;20.30;12.43;;;;;;;;;;5056272;28;20464;-72
2021/01/01 03:56:17;;;;;;;21.80;14.47;;;;;;;;;;5057061;28;20467;-72
2021/01/01 03:58:44;;;;;;;21.20;15.30;;;;;;;;;;5049759;28;20875;-71
2021/01/01 04:01:12;;;;;;;24.50;15.17;;;;;;;;;;5048609;28;20458;-72
2021/01/01 04:03:39;;;;;;;25.07;15.03;;;;;;;;;;5055262;28;20736;-73
2021/01/01 04:06:07;;;;;;;20.00;13.93;;;;;;;;;;5054431;28;20513;-71
2021/01/01 04:08:35;;;;;;;20.17;14.07;;;;;;;;;;5053449;28;21073;-72
2021/01/01 04:11:02;;;;;;;19.60;12.87;;;;;;;;;;5056302;28;20457;-72
2021/01/01 04:13:30;;;;;;;19.50;13.00;;;;;;;;;;5056904;28;20730;-72
2021/01/01 04:15:57;;;;;;;17.70;12.30;;;;;;;;;;5057455;28;20465;-71
2021/01/01 04:18:28;;;;;;;23.43;13.57;;;;;;;;;;5047594;28;20454;-72
2021/01/01 04:20:56;;;;;;;20.40;13.03;;;;;;;;;;5053489;28;20457;-72
2021/01/01 04:23:24;;;;;;;19.97;13.20;;;;;;;;;;5055382;28;20770;-72
2021/01/01 04:25:51;;;;;;;20.70;13.57;;;;;;;;;;5052188;28;20458;-73
2021/01/01 04:28:19;;;;;;;23.87;15.33;;;;;;;;;;5056324;28;20575;-72
2021/01/01 04:30:46;;;;;;;20.43;13.73;;;;;;;;;;5053546;28;20458;-72
2021/01/01 04:33:15;;;;;;;20.80;13.27;;;;;;;;;;5054817;28;20466;-72
2021/01/01 04:35:48;;;;;;;19.27;13.37;;;;;;;;;;5056744;28;20472;-72
2021/01/01 04:38:17;;;;;;;23.40;14.37;;;;;;;;;;5050567;28;20860;-72
2021/01/01 04:40:50;;;;;;;27.47;14.20;;;;;;;;;;5036213;28;20472;-71
2021/01/01 04:43:32;;;;;;;22.60;14.30;;;;;;;;;;5058466;28;20728;-72
2021/01/01 04:46:04;;;;;;;23.57;13.10;;;;;;;;;;5057691;28;20469;-72
2021/01/01 04:48:33;;;;;;;21.03;13.17;;;;;;;;;;5057852;28;20520;-72
2021/01/01 04:51:08;;;;;;;20.67;12.47;;;;;;;;;;5040783;28;20466;-72
2021/01/01 04:53:37;;;;;;;22.77;13.70;;;;;;;;;;5049931;28;20457;-72
2021/01/01 04:56:06;;;;;;;21.00;14.20;;;;;;;;;;5059069;28;20462;-72
2021/01/01 04:58:34;;;;;;;21.83;13.70;;;;;;;;;;5056527;28;20491;-74
2021/01/01 05:01:01;;;;;;;23.20;15.33;;;;;;;;;;5056699;28;20466;-72
2021/01/01 05:03:45;;;;;;;21.07;13.77;;;;;;;;;;5052025;28;20460;-72
2021/01/01 05:06:13;;;;;;;21.07;13.70;;;;;;;;;;5059615;28;20874;-73
2021/01/01 05:08:40;;;;;;;23.20;12.70;;;;;;;;;;5058676;28;20482;-73
2021/01/01 05:11:10;;;;;;;21.77;14.37;;;;;;;;;;5060030;28;20740;-73
2021/01/01 05:13:38;;;;;;;19.73;12.87;;;;;;;;;;5060080;28;20710;-72
2021/01/01 05:16:06;;;;;;;20.17;13.70;;;;;;;;;;5051626;28;20501;-72
2021/01/01 05:18:33;;;;;;;20.53;12.10;;;;;;;;;;5057905;28;20542;-73
2021/01/01 05:21:18;;;;;;;24.40;14.47;;;;;;;;;;5059875;28;20727;-72
2021/01/01 05:23:46;;;;;;;21.37;12.77;;;;;;;;;;5033481;28;20820;-72
2021/01/01 05:26:20;;;;;;;22.97;13.90;;;;;;;;;;5039956;28;20520;-73
2021/01/01 05:28:58;;;;;;;22.00;13.90;;;;;;;;;;5052143;28;20499;-72
2021/01/01 05:31:26;;;;;;;21.30;13.13;;;;;;;;;;5060331;28;20722;-73
2021/01/01 05:33:55;;;;;;;19.80;12.70;;;;;;;;;;5061060;28;20523;-72
2021/01/01 05:36:33;;;;;;;20.53;11.43;;;;;;;;;;5056528;28;20458;-72
2021/01/01 05:39:01;;;;;;;21.47;12.03;;;;;;;;;;5060236;28;20936;-73
2021/01/01 05:41:33;;;;;;;22.63;15.13;;;;;;;;;;5060930;28;20536;-72
2021/01/01 05:44:14;;;;;;;20.77;12.47;;;;;;;;;;5059946;28;20474;-72
2021/01/01 05:46:56;;;;;;;21.70;12.63;;;;;;;;;;5060029;28;20457;-72
2021/01/01 05:49:29;;;;;;;21.70;13.00;;;;;;;;;;5057703;28;20537;-72
2021/01/01 05:52:11;;;;;;;22.37;13.70;;;;;;;;;;5059941;28;20488;-72
2021/01/01 05:54:40;;;;;;;19.10;11.73;;;;;;;;;;5050621;28;20471;-73
2021/01/01 05:57:20;;;;;;;21.27;13.70;;;;;;;;;;5058842;28;20430;-71
2021/01/01 05:59:48;;;;;;;22.33;13.70;;;;;;;;;;5051423;28;20441;-73
2021/01/01 06:02:16;;;;;;;18.20;13.00;;;;;;;;;;5058290;28;20846;-72
2021/01/01 06:04:43;;;;;;;21.57;14.67;;;;;;;;;;5042219;28;20451;-72
2021/01/01 06:07:11;;;;;;;23.03;14.60;;;;;;;;;;5039939;28;20450;-73
2021/01/01 06:09:39;;;;;;;20.37;12.13;;;;;;;;;;5039611;28;20815;-72
2021/01/01 06:12:10;;;;;;;20.47;13.50;;;;;;;;;;5039869;28;20855;-72
2021/01/01 06:14:42;;;;;;;23.33;13.63;;;;;;;;;;5039037;28;20458;-73
2021/01/01 06:17:19;;;;;;;22.23;12.97;;;;;;;;;;5039157;28;20463;-72
2021/01/01 06:19:47;;;;;;;22.23;13.33;;;;;;;;;;5043559;28;20457;-72
2021/01/01 06:22:16;;;;;;;19.40;12.07;;;;;;;;;;5039175;28;20524;-73
2021/01/01 06:24:50;;;;;;;26.43;14.03;;;;;;;;;;5039312;28;20455;-72
2021/01/01 06:27:19;;;;;;;21.37;13.60;;;;;;;;;;5039164;28;20877;-72
2021/01/01 06:29:48;;;;;;;21.53;12.30;;;;;;;;;;5039099;28;20490;-72
2021/01/01 06:32:15;;;;;;;18.37;12.80;;;;;;;;;;5039106;28;20461;-72
2021/01/01 06:34:42;;;;;;;22.23;12.70;;;;;;;;;;5051106;28;20878;-72
2021/01/01 06:37:30;;;;;;;19.50;12.03;;;;;;;;;;5049522;28;20897;-72
2021/01/01 06:39:57;;;;;;;19.80;12.23;;;;;;;;;;5038922;28;20878;-71
2021/01/01 06:42:45;;;;;;;22.20;13.40;;;;;;;;;;5038540;28;20458;-72
2021/01/01 06:45:35;;;;;;;21.53;12.97;;;;;;;;;;5039821;28;20458;-72
2021/01/01 06:48:03;;;;;;;24.40;13.80;;;;;;;;;;5045804;28;20943;-72
2021/01/01 06:50:31;;;;;;;21.43;13.43;;;;;;;;;;5058352;28;20497;-72
2021/01/01 06:53:05;;;;;;;25.50;14.90;;;;;;;;;;5050418;28;20470;-72
2021/01/01 06:55:34;;;;;;;20.40;12.80;;;;;;;;;;5057582;28;20468;-72
2021/01/01 06:58:02;;;;;;;20.70;13.37;;;;;;;;;;5054817;28;20471;-72
2021/01/01 07:00:48;;;;;;;22.80;14.70;;;;;;;;;;5057221;28;20462;-72
2021/01/01 07:03:30;;;;;;;21.60;14.33;;;;;;;;;;5058963;28;20488;-72
2021/01/01 07:05:58;;;;;;;23.30;14.13;;;;;;;;;;5058412;28;20459;-72
2021/01/01 07:08:43;;;;;;;24.40;14.67;;;;;;;;;;5058529;28;20583;-72
2021/01/01 07:11:26;;;;;;;23.20;14.27;;;;;;;;;;5048809;28;20458;-72
2021/01/01 07:13:55;;;;;;;23.43;13.27;;;;;;;;;;5038294;28;20474;-72
2021/01/01 07:16:23;;;;;;;23.67;13.30;;;;;;;;;;5038189;28;20465;-72
2021/01/01 07:18:54;;;;;;;22.90;14.63;;;;;;;;;;5039151;28;20882;-72
2021/01/01 07:21:22;;;;;;;27.50;14.23;;;;;;;;;;5038147;28;20964;-71
2021/01/01 07:23:49;;;;;;;25.30;15.67;;;;;;;;;;5038626;28;20477;-71
2021/01/01 07:26:17;;;;;;;26.53;14.73;;;;;;;;;;5042759;28;20885;-72
2021/01/01 07:28:45;;;;;;;22.93;15.10;;;;;;;;;;5057810;28;20746;-72
2021/01/01 07:31:16;;;;;;;21.87;15.23;;;;;;;;;;5053915;28;20449;-72
2021/01/01 07:33:45;;;;;;;26.70;15.67;;;;;;;;;;5057748;28;20882;-72
2021/01/01 07:36:16;;;;;;;24.67;15.30;;;;;;;;;;5058448;28;20852;-72
2021/01/01 07:38:54;;;;;;;23.53;14.30;;;;;;;;;;5056968;28;20469;-72
2021/01/01 07:41:26;;;;;;;22.77;13.80;;;;;;;;;;5057560;28;20457;-72
2021/01/01 07:43:56;;;;;;;26.47;16.37;;;;;;;;;;5059123;28;20468;-73
2021/01/01 07:46:25;;;;;;;25.30;15.47;;;;;;;;;;5057112;28;20536;-71
2021/01/01 07:48:54;;;;;;;25.57;16.23;;;;;;;;;;5058471;28;20477;-71
2021/01/01 07:51:22;;;;;;;23.27;14.63;;;;;;;;;;5059134;28;20522;-72
2021/01/01 07:53:59;;;;;;;22.57;14.90;;;;;;;;;;5057231;28;20549;-71
2021/01/01 07:56:27;;;;;;;23.37;15.13;;;;;;;;;;5058147;28;20473;-72
2021/01/01 07:58:56;;;;;;;25.47;14.13;;;;;;;;;;5057411;28;20462;-71
2021/01/01 08:01:24;;;;;;;26.67;15.73;;;;;;;;;;5057249;28;20519;-72
2021/01/01 08:03:52;;;;;;;22.70;14.07;;;;;;;;;;5057326;28;20468;-71
2021/01/01 08:06:20;;;;;;;22.33;13.90;;;;;;;;;;5056918;28;20524;-72
2021/01/01 08:08:49;;;;;;;26.30;15.10;;;;;;;;;;5057267;28;20584;-71
2021/01/01 08:11:17;;;;;;;22.47;14.90;;;;;;;;;;5056257;28;20465;-71
2021/01/01 08:13:45;;;;;;;21.40;12.93;;;;;;;;;;5057301;28;20478;-72
2021/01/01 08:16:13;;;;;;;24.20;13.93;;;;;;;;;;5058615;28;20877;-72
2021/01/01 08:18:40;;;;;;;22.90;13.07;;;;;;;;;;5059147;28;20464;-72
2021/01/01 08:21:09;;;;;;;25.70;14.93;;;;;;;;;;5058710;28;20465;-72
2021/01/01 08:23:44;;;;;;;24.60;14.27;;;;;;;;;;5052821;28;20466;-72
2021/01/01 08:26:12;;;;;;;26.70;15.90;;;;;;;;;;5059426;28;20462;-72
2021/01/01 08:28:41;;;;;;;23.90;15.03;;;;;;;;;;5057099;28;20482;-72
2021/01/01 08:31:09;;;;;;;26.37;13.67;;;;;;;;;;5057652;28;20480;-72
2021/01/01 08:33:42;;;;;;;24.90;14.70;;;;;;;;;;5055947;28;20736;-72
2021/01/01 08:36:11;;;;;;;22.97;14.97;;;;;;;;;;5056640;28;20473;-72
2021/01/01 08:38:42;;;;;;;23.83;14.80;;;;;;;;;;5048506;28;20740;-72
2021/01/01 08:41:16;;;;;;;28.30;14.97;;;;;;;;;;5056839;28;20457;-72
2021/01/01 08:43:44;;;;;;;24.07;15.37;;;;;;;;;;5058862;28;20491;-72
2021/01/01 08:46:18;;;;;;;27.03;14.13;;;;;;;;;;5059033;28;20760;-72
2021/01/01 08:48:48;;;;;;;26.43;15.50;;;;;;;;;;5057252;28;20895;-72
2021/01/01 08:51:32;;;;;;;22.90;14.17;;;;;;;;;;5058963;28;20465;-72
2021/01/01 08:53:59;;;;;;;20.40;13.00;;;;;;;;;;5057675;28;20512;-72
2021/01/01 08:56:30;;;;;;;25.67;14.07;;;;;;;;;;5055916;28;20499;-72
2021/01/01 08:59:08;;;;;;;23.70;13.90;;;;;;;;;;5057334;28;20852;-72
2021/01/01 09:01:36;;;;;;;25.57;15.67;;;;;;;;;;5047653;28;20731;-72
2021/01/01 09:04:03;;;;;;;27.10;14.70;;;;;;;;;;5056594;28;20741;-73
2021/01/01 09:06:34;;;;;;;24.10;14.33;;;;;;;;;;5056404;28;20469;-72
2021/01/01 09:09:06;;;;;;;22.83;14.30;;;;;;;;;;5056559;28;20489;-73
2021/01/01 09:11:33;;;;;;;25.30;16.30;;;;;;;;;;5055843;28;20461;-72
2021/01/01 09:14:02;;;;;;;24.70;14.07;;;;;;;;;;5056303;28;20465;-72
2021/01/01 09:16:29;;;;;;;23.50;14.17;;;;;;;;;;5056808;28;20874;-72
2021/01/01 09:18:57;;;;;;;23.90;14.50;;;;;;;;;;5042478;28;20470;-73
2021/01/01 09:21:28;;;;;;;23.70;13.13;;;;;;;;;;5049940;28;20465;-72
2021/01/01 09:23:57;;;;;;;22.10;14.87;;;;;;;;;;5056441;28;20473;-72
2021/01/01 09:26:24;;;;;;;25.47;14.60;;;;;;;;;;5053394;28;20894;-73
2021/01/01 09:29:00;;;;;;;25.27;15.00;;;;;;;;;;5058332;28;20504;-73
2021/01/01 09:31:28;;;;;;;25.93;13.53;;;;;;;;;;5044278;28;21008;-73
2021/01/01 09:34:01;;;;;;;23.63;13.63;;;;;;;;;;5045699;28;20815;-72
2021/01/01 09:36:29;;;;;;;21.17;12.63;;;;;;;;;;5054303;28;20462;-73
2021/01/01 09:38:57;;;;;;;23.37;15.00;;;;;;;;;;5054143;28;20454;-73
2021/01/01 09:41:24;;;;;;;25.03;15.13;;;;;;;;;;5054126;28;20470;-72
2021/01/01 09:43:52;;;;;;;23.83;13.93;;;;;;;;;;5042400;28;20540;-72
2021/01/01 09:46:19;;;;;;;21.47;13.33;;;;;;;;;;5035971;28;20462;-72
2021/01/01 09:48:46;;;;;;;22.57;13.40;;;;;;;;;;5053660;28;20482;-71
2021/01/01 09:51:15;;;;;;;21.03;13.80;;;;;;;;;;5048613;28;20466;-73
2021/01/01 09:53:42;;;;;;;24.67;14.40;;;;;;;;;;5038961;28;20467;-73
2021/01/01 09:56:11;;;;;;;20.30;13.50;;;;;;;;;;5043471;28;20467;-73
2021/01/01 09:58:38;;;;;;;22.27;12.53;;;;;;;;;;5059436;28;20449;-72
2021/01/01 10:01:05;;;;;;;19.33;11.60;;;;;;;;;;5059657;28;20473;-72
2021/01/01 10:03:44;;;;;;;20.70;12.03;;;;;;;;;;5053647;28;20458;-72
2021/01/01 10:06:13;;;;;;;18.67;11.43;;;;;;;;;;5058939;28;20484;-72
2021/01/01 10:08:41;;;;;;;19.97;12.20;;;;;;;;;;5048996;28;20454;-72
2021/01/01 10:11:08;;;;;;;18.87;13.07;;;;;;;;;;5059704;28;20466;-71
2021/01/01 10:13:36;;;;;;;18.10;12.10;;;;;;;;;;5058136;28;20520;-72
2021/01/01 10:16:06;;;;;;;18.40;11.73;;;;;;;;;;5063036;28;20469;-73
2021/01/01 10:18:33;;;;;;;22.20;11.83;;;;;;;;;;5078896;28;20461;-72
2021/01/01 10:21:02;;;;;;;21.57;12.53;;;;;;;;;;5078550;28;20487;-72
2021/01/01 10:23:29;;;;;;;20.37;12.23;;;;;;;;;;5076365;28;20469;-72
2021/01/01 10:25:56;;;;;;;23.73;10.90;;;;;;;;;;5058539;28;20458;-72
2021/01/01 10:28:24;;;;;;;21.30;12.47;;;;;;;;;;5058139;28;20726;-72
2021/01/01 10:30:52;;;;;;;17.10;10.10;;;;;;;;;;5058210;28;20465;-72
2021/01/01 10:33:23;;;;;;;21.30;12.10;;;;;;;;;;5058121;28;20476;-72
2021/01/01 10:35:50;;;;;;;17.43;12.17;;;;;;;;;;5057680;28;20535;-72
2021/01/01 10:38:18;;;;;;;20.23;11.13;;;;;;;;;;5058075;28;20466;-72
2021/01/01 10:40:45;;;;;;;15.80;10.40;;;;;;;;;;5058112;28;21435;-72
2021/01/01 10:43:12;;;;;;;19.30;11.67;;;;;;;;;;5057607;28;20882;-73
2021/01/01 10:45:39;;;;;;;20.90;12.43;;;;;;;;;;5057558;28;20469;-72
2021/01/01 10:48:09;;;;;;;16.17;9.80;;;;;;;;;;5057686;28;20759;-72
2021/01/01 10:50:36;;;;;;;20.83;11.50;;;;;;;;;;5057596;28;20493;-72
2021/01/01 10:53:03;;;;;;;19.50;11.47;;;;;;;;;;5057122;28;20458;-72
2021/01/01 10:55:33;;;;;;;16.57;9.80;;;;;;;;;;5057321;28;20469;-72
2021/01/01 10:58:01;;;;;;;20.10;11.73;;;;;;;;;;5058303;28;20600;-72
2021/01/01 11:00:28;;;;;;;25.10;12.37;;;;;;;;;;5057370;28;20476;-72
2021/01/01 11:02:55;;;;;;;17.90;12.37;;;;;;;;;;5056723;28;20454;-72
2021/01/01 11:05:24;;;;;;;17.20;10.73;;;;;;;;;;5058282;28;20454;-72
2021/01/01 11:07:51;;;;;;;18.87;10.80;;;;;;;;;;5041965;28;20466;-72
2021/01/01 11:10:18;;;;;;;25.80;11.20;;;;;;;;;;5059278;28;20774;-72
2021/01/01 11:12:46;;;;;;;18.00;11.90;;;;;;;;;;5057888;28;20911;-73
2021/01/01 12:19:25;;;;;;;20.17;11.17;;;;;;;;;;5058038;28;20619;-73
2021/01/01 12:24:47;;;;;;;18.83;11.93;;;;;;;;;;5019762;28;20443;-73
2021/01/01 12:27:18;;;;;;;16.53;10.33;;;;;;;;;;5037099;28;20540;-73
2021/01/01 12:29:45;;;;;;;21.33;11.93;;;;;;;;;;5036496;28;20824;-73
2021/01/01 12:32:14;;;;;;;18.40;10.80;;;;;;;;;;5036349;28;20753;-73
2021/01/01 12:34:41;;;;;;;18.50;11.90;;;;;;;;;;5036413;28;20462;-73
2021/01/01 12:37:09;;;;;;;20.33;11.73;;;;;;;;;;5036265;28;20837;-73
2021/01/01 12:39:36;;;;;;;21.73;11.20;;;;;;;;;;5027913;28;20474;-73
2021/01/01 12:42:05;;;;;;;15.40;8.93;;;;;;;;;;5036481;28;20462;-72
2021/01/01 12:44:34;;;;;;;17.80;10.47;;;;;;;;;;5051979;28;20479;-73
2021/01/01 12:47:02;;;;;;;18.20;10.80;;;;;;;;;;5055862;28;20468;-72
2021/01/01 12:49:29;;;;;;;21.50;11.83;;;;;;;;;;5057274;28;20526;-72
2021/01/01 12:51:56;;;;;;;22.17;11.43;;;;;;;;;;5056203;28;20462;-72
2021/01/01 12:54:29;;;;;;;21.83;10.07;;;;;;;;;;5056124;28;20897;-72
2021/01/01 12:56:56;;;;;;;19.70;12.63;;;;;;;;;;5057316;28;20783;-72
2021/01/01 12:59:24;;;;;;;15.77;10.23;;;;;;;;;;5055887;28;20466;-73
2021/01/01 13:01:56;;;;;;;21.40;12.93;;;;;;;;;;5055628;28;20462;-73
2021/01/01 13:04:26;;;;;;;15.07;8.43;;;;;;;;;;5036951;28;20541;-73
2021/01/01 13:06:54;;;;;;;18.53;12.50;;;;;;;;;;5035970;28;20718;-72
2021/01/01 13:09:23;;;;;;;19.17;12.80;;;;;;;;;;5036148;28;20481;-73
2021/01/01 13:11:50;;;;;;;19.13;11.40;;;;;;;;;;5040860;28;20923;-73
2021/01/01 13:14:17;;;;;;;19.83;12.13;;;;;;;;;;5068657;28;20456;-72
2021/01/01 13:16:46;;;;;;;16.37;11.17;;;;;;;;;;5076095;28;20489;-72
2021/01/01 13:19:14;;;;;;;20.40;12.03;;;;;;;;;;5056315;28;20789;-73
2021/01/01 13:21:42;;;;;;;19.37;11.63;;;;;;;;;;5056675;28;20477;-73
2021/01/01 13:24:11;;;;;;;19.43;13.30;;;;;;;;;;5057786;28;20473;-73
2021/01/01 13:26:50;;;;;;;22.50;13.07;;;;;;;;;;5062821;28;20466;-74
2021/01/01 13:29:21;;;;;;;22.17;12.70;;;;;;;;;;5059463;28;20493;-73
2021/01/01 13:31:48;;;;;;;23.30;13.87;;;;;;;;;;5075419;28;20540;-72
2021/01/01 13:34:17;;;;;;;18.00;12.13;;;;;;;;;;5053478;28;20481;-73
2021/01/01 13:36:44;;;;;;;18.70;11.00;;;;;;;;;;5079733;28;20444;-73
2021/01/01 13:39:11;;;;;;;19.97;12.93;;;;;;;;;;5063080;28;20935;-73
2021/01/01 13:41:39;;;;;;;22.67;15.20;;;;;;;;;;5059824;28;20483;-73
2021/01/01 13:44:18;;;;;;;24.40;12.83;;;;;;;;;;5055102;28;20453;-73
2021/01/01 13:46:46;;;;;;;22.90;14.33;;;;;;;;;;5060510;28;20562;-73
2021/01/01 13:49:13;;;;;;;24.57;14.20;;;;;;;;;;5051854;28;20481;-73
2021/01/01 13:51:41;;;;;;;25.50;15.07;;;;;;;;;;5060002;28;20920;-74
2021/01/01 13:54:12;;;;;;;25.83;14.47;;;;;;;;;;5052163;28;20550;-73
2021/01/01 13:56:39;;;;;;;21.00;13.80;;;;;;;;;;5024120;28;20467;-73
2021/01/01 13:59:18;;;;;;;21.57;13.20;;;;;;;;;;5052455;28;20474;-73
2021/01/01 14:01:46;;;;;;;22.70;14.07;;;;;;;;;;5073798;28;20448;-73
2021/01/01 14:04:19;;;;;;;23.23;15.20;;;;;;;;;;5064326;28;20465;-73
2021/01/01 14:06:48;;;;;;;24.70;14.70;;;;;;;;;;5079655;28;20803;-74
2021/01/01 14:09:15;;;;;;;24.00;14.27;;;;;;;;;;5079474;28;20472;-72
2021/01/01 14:11:47;;;;;;;22.90;13.83;;;;;;;;;;5079256;28;20461;-72
2021/01/01 14:14:16;;;;;;;24.67;14.03;;;;;;;;;;5077995;28;20475;-73
2021/01/01 14:16:50;;;;;;;27.17;14.00;;;;;;;;;;5068726;28;20537;-72
2021/01/01 14:19:17;;;;;;;23.27;14.70;;;;;;;;;;5044169;28;20894;-73
2021/01/01 14:21:45;;;;;;;23.93;15.63;;;;;;;;;;5056774;28;20454;-73
2021/01/01 14:24:17;;;;;;;28.40;15.20;;;;;;;;;;5058796;28;20480;-72
2021/01/01 14:26:45;;;;;;;29.57;16.47;;;;;;;;;;5058767;28;20460;-72
2021/01/01 14:29:32;;;;;;;23.27;13.27;;;;;;;;;;5058888;28;20956;-74
2021/01/01 14:32:00;;;;;;;26.70;16.33;;;;;;;;;;5053969;28;20545;-73
2021/01/01 14:34:27;;;;;;;26.50;15.13;;;;;;;;;;5056210;28;20504;-73
2021/01/01 14:36:57;;;;;;;27.93;16.63;;;;;;;;;;5052929;28;20532;-73
2021/01/01 14:39:31;;;;;;;28.70;16.03;;;;;;;;;;5039888;28;20472;-73
2021/01/01 14:41:58;;;;;;;24.07;16.07;;;;;;;;;;5055532;28;20457;-73
2021/01/01 14:44:26;;;;;;;21.67;14.50;;;;;;;;;;5058384;28;20957;-73
2021/01/01 14:46:57;;;;;;;21.23;14.50;;;;;;;;;;5057811;28;20500;-72
2021/01/01 14:49:25;;;;;;;26.60;17.50;;;;;;;;;;5045578;28;20487;-73
2021/01/01 14:51:53;;;;;;;24.40;14.07;;;;;;;;;;5051602;28;20463;-72
2021/01/01 14:54:21;;;;;;;21.87;13.60;;;;;;;;;;5038562;28;20470;-72
2021/01/01 14:56:49;;;;;;;23.93;14.37;;;;;;;;;;5037251;28;20455;-72
2021/01/01 14:59:19;;;;;;;25.43;16.20;;;;;;;;;;5038040;28;20455;-73
2021/01/01 15:01:46;;;;;;;21.10;13.50;;;;;;;;;;5037921;28;20724;-72
2021/01/01 15:04:16;;;;;;;26.90;16.33;;;;;;;;;;5051977;28;20527;-72
2021/01/01 15:06:44;;;;;;;23.13;13.13;;;;;;;;;;5058012;28;20461;-73
2021/01/01 15:09:11;;;;;;;21.20;12.37;;;;;;;;;;5057904;28;20729;-73
2021/01/01 15:11:49;;;;;;;24.10;14.50;;;;;;;;;;5046207;28;20543;-73
2021/01/01 15:14:18;;;;;;;24.00;15.77;;;;;;;;;;5058142;28;20477;-73
2021/01/01 15:16:46;;;;;;;28.57;15.00;;;;;;;;;;5057380;28;20454;-73
2021/01/01 15:19:14;;;;;;;21.30;13.13;;;;;;;;;;5039725;28;20477;-72
2021/01/01 15:21:45;;;;;;;22.17;14.53;;;;;;;;;;5039052;28;20597;-72
2021/01/01 15:24:18;;;;;;;18.47;13.20;;;;;;;;;;5037639;28;20459;-72
2021/01/01 15:29:33;;;;;;;29.30;15.80;;;;;;;;;;5050258;28;20911;-73
2021/01/01 15:32:09;;;;;;;24.27;15.20;;;;;;;;;;5059299;28;20466;-74
2021/01/01 15:34:44;;;;;;;23.47;13.13;;;;;;;;;;5031485;28;20506;-74
2021/01/01 15:37:16;;;;;;;19.73;14.00;;;;;;;;;;5036511;28;20449;-72
2021/01/01 15:39:45;;;;;;;22.17;12.50;;;;;;;;;;5058933;28;20449;-73